Terminal Aerodrome Forecast
Issued by NWS Glasgow, MT

Home | Current Version | Previous Version | Text Only | Print | Product List | Glossary On
Versions: 1 2 3 4 5 6 7 8 9 10 11 12 13 14
050
FTUS45 KGGW 290525
TAFGGW
TAF
KGGW 290525Z 2906/3006 22005KT P6SM FEW250
     FM292000 27011KT P6SM SCT200
     FM300300 09004KT P6SM SCT200=

USA.gov is the U.S. government's official web portal to all federal, state and local government web resources and services.